sensor_id;sensor_type;location;lat;lon;timestamp;temperature;humidity
4509;DHT22;2267;48.816;9.230;2023-07-29T00:01:57;19.90;99.90
4509;DHT22;2267;48.816;9.230;2023-07-29T00:04:24;19.90;99.90
4509;DHT22;2267;48.816;9.230;2023-07-29T00:06:50;19.90;99.90
4509;DHT22;2267;48.816;9.230;2023-07-29T00:09:17;19.90;99.90
4509;DHT22;2267;48.816;9.230;2023-07-29T00:11:44;19.90;99.90
4509;DHT22;2267;48.816;9.230;2023-07-29T00:14:11;19.90;99.90
4509;DHT22;2267;48.816;9.230;2023-07-29T00:16:38;19.90;99.90
4509;DHT22;2267;48.816;9.230;2023-07-29T00:19:05;19.90;99.90
4509;DHT22;2267;48.816;9.230;2023-07-29T00:21:32;19.90;99.90
4509;DHT22;2267;48.816;9.230;2023-07-29T00:23:59;19.90;99.90
4509;DHT22;2267;48.816;9.230;2023-07-29T00:26:27;19.90;99.90
4509;DHT22;2267;48.816;9.230;2023-07-29T00:28:56;19.90;99.90
4509;DHT22;2267;48.816;9.230;2023-07-29T00:31:23;19.80;99.90
4509;DHT22;2267;48.816;9.230;2023-07-29T00:33:49;19.80;99.90
4509;DHT22;2267;48.816;9.230;2023-07-29T00:36:16;19.80;99.90
4509;DHT22;2267;48.816;9.230;2023-07-29T00:38:43;19.80;99.90
4509;DHT22;2267;48.816;9.230;2023-07-29T00:41:11;19.80;99.90
4509;DHT22;2267;48.816;9.230;2023-07-29T00:43:39;19.80;99.90
4509;DHT22;2267;48.816;9.230;2023-07-29T00:46:08;19.80;99.90
4509;DHT22;2267;48.816;9.230;2023-07-29T00:48:35;19.80;99.90
4509;DHT22;2267;48.816;9.230;2023-07-29T00:51:02;19.80;99.90
4509;DHT22;2267;48.816;9.230;2023-07-29T00:53:29;19.80;99.90
4509;DHT22;2267;48.816;9.230;2023-07-29T00:55:56;19.80;99.90
4509;DHT22;2267;48.816;9.230;2023-07-29T00:58:23;19.80;99.90
4509;DHT22;2267;48.816;9.230;2023-07-29T01:00:50;19.80;99.90
4509;DHT22;2267;48.816;9.230;2023-07-29T01:03:17;19.80;99.90
4509;DHT22;2267;48.816;9.230;2023-07-29T01:05:59;19.80;99.90
4509;DHT22;2267;48.816;9.230;2023-07-29T01:08:37;19.70;99.90
4509;DHT22;2267;48.816;9.230;2023-07-29T01:13:41;19.70;99.90
4509;DHT22;2267;48.816;9.230;2023-07-29T01:16:29;19.70;99.90
4509;DHT22;2267;48.816;9.230;2023-07-29T01:18:59;19.70;99.90
4509;DHT22;2267;48.816;9.230;2023-07-29T01:21:31;19.70;99.90
4509;DHT22;2267;48.816;9.230;2023-07-29T01:23:59;19.70;99.90
4509;DHT22;2267;48.816;9.230;2023-07-29T01:26:26;19.70;99.90
4509;DHT22;2267;48.816;9.230;2023-07-29T01:28:56;19.70;99.90
4509;DHT22;2267;48.816;9.230;2023-07-29T01:31:38;19.70;99.90
4509;DHT22;2267;48.816;9.230;2023-07-29T01:34:18;19.70;99.90
4509;DHT22;2267;48.816;9.230;2023-07-29T01:36:50;19.60;99.90
4509;DHT22;2267;48.816;9.230;2023-07-29T01:39:18;19.70;99.90
4509;DHT22;2267;48.816;9.230;2023-07-29T01:41:45;19.60;99.90
4509;DHT22;2267;48.816;9.230;2023-07-29T01:44:13;19.60;99.90
4509;DHT22;2267;48.816;9.230;2023-07-29T01:46:40;19.60;99.90
4509;DHT22;2267;48.816;9.230;2023-07-29T01:49:07;19.60;99.90
4509;DHT22;2267;48.816;9.230;2023-07-29T01:51:34;19.60;99.90
4509;DHT22;2267;48.816;9.230;2023-07-29T01:54:00;19.60;99.90
4509;DHT22;2267;48.816;9.230;2023-07-29T01:56:27;19.60;99.90
4509;DHT22;2267;48.816;9.230;2023-07-29T01:58:54;19.60;99.90
4509;DHT22;2267;48.816;9.230;2023-07-29T02:01:21;19.50;99.90
4509;DHT22;2267;48.816;9.230;2023-07-29T02:03:48;19.60;99.90
4509;DHT22;2267;48.816;9.230;2023-07-29T02:06:21;19.60;99.90
4509;DHT22;2267;48.816;9.230;2023-07-29T02:08:48;19.50;99.90
4509;DHT22;2267;48.816;9.230;2023-07-29T02:11:15;19.50;99.90
4509;DHT22;2267;48.816;9.230;2023-07-29T02:13:42;19.50;99.90
4509;DHT22;2267;48.816;9.230;2023-07-29T02:16:09;19.50;99.90
4509;DHT22;2267;48.816;9.230;2023-07-29T02:18:35;19.50;99.90
4509;DHT22;2267;48.816;9.230;2023-07-29T02:21:02;19.50;99.90
4509;DHT22;2267;48.816;9.230;2023-07-29T02:23:29;19.50;99.90
4509;DHT22;2267;48.816;9.230;2023-07-29T02:25:56;19.50;99.90
4509;DHT22;2267;48.816;9.230;2023-07-29T02:28:23;19.50;99.90
4509;DHT22;2267;48.816;9.230;2023-07-29T02:30:54;19.50;99.90
4509;DHT22;2267;48.816;9.230;2023-07-29T02:33:35;19.50;99.90
4509;DHT22;2267;48.816;9.230;2023-07-29T02:36:02;19.50;99.90
4509;DHT22;2267;48.816;9.230;2023-07-29T02:38:29;19.50;99.90
4509;DHT22;2267;48.816;9.230;2023-07-29T02:40:56;19.50;99.90
4509;DHT22;2267;48.816;9.230;2023-07-29T02:43:23;19.50;99.90
4509;DHT22;2267;48.816;9.230;2023-07-29T02:45:49;19.40;99.90
4509;DHT22;2267;48.816;9.230;2023-07-29T02:48:16;19.40;99.90
4509;DHT22;2267;48.816;9.230;2023-07-29T02:50:43;19.50;99.90
4509;DHT22;2267;48.816;9.230;2023-07-29T02:53:10;19.40;99.90
4509;DHT22;2267;48.816;9.230;2023-07-29T02:55:40;19.50;99.90
4509;DHT22;2267;48.816;9.230;2023-07-29T02:58:07;19.50;99.90
4509;DHT22;2267;48.816;9.230;2023-07-29T03:00:34;19.50;99.90
4509;DHT22;2267;48.816;9.230;2023-07-29T03:03:02;19.50;99.90
4509;DHT22;2267;48.816;9.230;2023-07-29T03:05:29;19.50;99.90
4509;DHT22;2267;48.816;9.230;2023-07-29T03:07:57;19.50;99.90
4509;DHT22;2267;48.816;9.230;2023-07-29T03:10:24;19.50;99.90
4509;DHT22;2267;48.816;9.230;2023-07-29T03:12:54;19.40;99.90
4509;DHT22;2267;48.816;9.230;2023-07-29T03:15:25;19.50;99.90
4509;DHT22;2267;48.816;9.230;2023-07-29T03:17:52;19.50;99.90
4509;DHT22;2267;48.816;9.230;2023-07-29T03:20:20;19.40;99.90
4509;DHT22;2267;48.816;9.230;2023-07-29T03:22:46;19.40;99.90
4509;DHT22;2267;48.816;9.230;2023-07-29T03:25:13;19.40;99.90
4509;DHT22;2267;48.816;9.230;2023-07-29T03:27:40;19.40;99.90
4509;DHT22;2267;48.816;9.230;2023-07-29T03:30:07;19.40;99.90
4509;DHT22;2267;48.816;9.230;2023-07-29T03:32:34;19.40;99.90
4509;DHT22;2267;48.816;9.230;2023-07-29T03:35:01;19.40;99.90
4509;DHT22;2267;48.816;9.230;2023-07-29T03:37:28;19.40;99.90
4509;DHT22;2267;48.816;9.230;2023-07-29T03:39:55;19.30;99.90
4509;DHT22;2267;48.816;9.230;2023-07-29T03:42:21;19.30;99.90
4509;DHT22;2267;48.816;9.230;2023-07-29T03:44:48;19.40;99.90
4509;DHT22;2267;48.816;9.230;2023-07-29T03:47:15;19.40;99.90
4509;DHT22;2267;48.816;9.230;2023-07-29T03:49:42;19.40;99.90
4509;DHT22;2267;48.816;9.230;2023-07-29T03:52:09;19.40;99.90
4509;DHT22;2267;48.816;9.230;2023-07-29T03:54:35;19.40;99.90
4509;DHT22;2267;48.816;9.230;2023-07-29T03:57:02;19.40;99.90
4509;DHT22;2267;48.816;9.230;2023-07-29T03:59:29;19.40;99.90
4509;DHT22;2267;48.816;9.230;2023-07-29T04:01:56;19.40;99.90
4509;DHT22;2267;48.816;9.230;2023-07-29T04:04:23;19.40;99.90
4509;DHT22;2267;48.816;9.230;2023-07-29T04:06:50;19.40;99.90
4509;DHT22;2267;48.816;9.230;2023-07-29T04:09:17;19.40;99.90
4509;DHT22;2267;48.816;9.230;2023-07-29T04:11:44;19.40;99.90
4509;DHT22;2267;48.816;9.230;2023-07-29T04:14:11;19.40;99.90
4509;DHT22;2267;48.816;9.230;2023-07-29T04:16:38;19.40;99.90
4509;DHT22;2267;48.816;9.230;2023-07-29T04:19:05;19.40;99.90
4509;DHT22;2267;48.816;9.230;2023-07-29T04:21:32;19.40;99.90
4509;DHT22;2267;48.816;9.230;2023-07-29T04:23:58;19.40;99.90
4509;DHT22;2267;48.816;9.230;2023-07-29T04:26:25;19.40;99.90
4509;DHT22;2267;48.816;9.230;2023-07-29T04:28:52;19.40;99.90
4509;DHT22;2267;48.816;9.230;2023-07-29T04:31:19;19.40;99.90
4509;DHT22;2267;48.816;9.230;2023-07-29T04:33:46;19.40;99.90
4509;DHT22;2267;48.816;9.230;2023-07-29T04:36:12;19.30;99.90
4509;DHT22;2267;48.816;9.230;2023-07-29T04:38:39;19.30;99.90
4509;DHT22;2267;48.816;9.230;2023-07-29T04:41:06;19.40;99.90
4509;DHT22;2267;48.816;9.230;2023-07-29T04:43:35;19.40;99.90
4509;DHT22;2267;48.816;9.230;2023-07-29T04:46:02;19.40;99.90
4509;DHT22;2267;48.816;9.230;2023-07-29T04:48:29;19.40;99.90
4509;DHT22;2267;48.816;9.230;2023-07-29T04:50:57;19.40;99.90
4509;DHT22;2267;48.816;9.230;2023-07-29T04:53:23;19.40;99.90
4509;DHT22;2267;48.816;9.230;2023-07-29T04:55:50;19.40;99.90
4509;DHT22;2267;48.816;9.230;2023-07-29T04:58:17;19.30;99.90
4509;DHT22;2267;48.816;9.230;2023-07-29T05:00:43;19.40;99.90
4509;DHT22;2267;48.816;9.230;2023-07-29T05:03:10;19.40;99.90
4509;DHT22;2267;48.816;9.230;2023-07-29T05:05:37;19.40;99.90
4509;DHT22;2267;48.816;9.230;2023-07-29T05:08:04;19.40;99.90
4509;DHT22;2267;48.816;9.230;2023-07-29T05:10:31;19.40;99.90
4509;DHT22;2267;48.816;9.230;2023-07-29T05:12:57;19.30;99.90
4509;DHT22;2267;48.816;9.230;2023-07-29T05:15:24;19.30;99.90
4509;DHT22;2267;48.816;9.230;2023-07-29T05:17:51;19.30;99.90
4509;DHT22;2267;48.816;9.230;2023-07-29T05:20:17;19.30;99.90
4509;DHT22;2267;48.816;9.230;2023-07-29T05:22:44;19.30;99.90
4509;DHT22;2267;48.816;9.230;2023-07-29T05:25:11;19.30;99.90
4509;DHT22;2267;48.816;9.230;2023-07-29T05:27:37;19.30;99.90
4509;DHT22;2267;48.816;9.230;2023-07-29T05:30:04;19.30;99.90
4509;DHT22;2267;48.816;9.230;2023-07-29T05:32:31;19.30;99.90
4509;DHT22;2267;48.816;9.230;2023-07-29T05:34:58;19.30;99.90
4509;DHT22;2267;48.816;9.230;2023-07-29T05:37:28;19.30;99.90
4509;DHT22;2267;48.816;9.230;2023-07-29T05:39:54;19.30;99.90
4509;DHT22;2267;48.816;9.230;2023-07-29T05:42:21;19.30;99.90
4509;DHT22;2267;48.816;9.230;2023-07-29T05:44:48;19.40;99.90
4509;DHT22;2267;48.816;9.230;2023-07-29T05:47:14;19.40;99.90
4509;DHT22;2267;48.816;9.230;2023-07-29T05:49:41;19.40;99.90
4509;DHT22;2267;48.816;9.230;2023-07-29T05:52:08;19.40;99.90
4509;DHT22;2267;48.816;9.230;2023-07-29T05:54:34;19.40;99.90
4509;DHT22;2267;48.816;9.230;2023-07-29T05:57:01;19.40;99.90
4509;DHT22;2267;48.816;9.230;2023-07-29T05:59:28;19.50;99.90
4509;DHT22;2267;48.816;9.230;2023-07-29T06:01:55;19.50;99.90
4509;DHT22;2267;48.816;9.230;2023-07-29T06:04:22;19.60;99.90
4509;DHT22;2267;48.816;9.230;2023-07-29T06:06:49;19.60;99.90
4509;DHT22;2267;48.816;9.230;2023-07-29T06:09:16;19.60;99.90
4509;DHT22;2267;48.816;9.230;2023-07-29T06:11:43;19.70;99.90
4509;DHT22;2267;48.816;9.230;2023-07-29T06:14:09;19.70;99.90
4509;DHT22;2267;48.816;9.230;2023-07-29T06:16:36;19.80;99.90
4509;DHT22;2267;48.816;9.230;2023-07-29T06:19:04;19.80;99.90
4509;DHT22;2267;48.816;9.230;2023-07-29T06:21:30;19.80;99.90
4509;DHT22;2267;48.816;9.230;2023-07-29T06:23:57;19.80;99.90
4509;DHT22;2267;48.816;9.230;2023-07-29T06:26:24;19.90;99.90
4509;DHT22;2267;48.816;9.230;2023-07-29T06:28:50;19.90;99.90
4509;DHT22;2267;48.816;9.230;2023-07-29T06:31:17;20.00;99.90
4509;DHT22;2267;48.816;9.230;2023-07-29T06:33:44;20.00;99.90
4509;DHT22;2267;48.816;9.230;2023-07-29T06:36:11;20.00;99.90
4509;DHT22;2267;48.816;9.230;2023-07-29T06:38:38;20.00;99.90
4509;DHT22;2267;48.816;9.230;2023-07-29T06:41:05;20.00;99.90
4509;DHT22;2267;48.816;9.230;2023-07-29T06:43:32;20.10;99.90
4509;DHT22;2267;48.816;9.230;2023-07-29T06:45:59;20.10;99.90
4509;DHT22;2267;48.816;9.230;2023-07-29T06:48:26;20.00;99.90
4509;DHT22;2267;48.816;9.230;2023-07-29T06:50:53;20.10;99.90
4509;DHT22;2267;48.816;9.230;2023-07-29T06:53:21;20.00;99.90
4509;DHT22;2267;48.816;9.230;2023-07-29T06:55:48;20.00;99.90
4509;DHT22;2267;48.816;9.230;2023-07-29T06:58:15;20.00;99.90
4509;DHT22;2267;48.816;9.230;2023-07-29T07:00:41;20.00;99.90
4509;DHT22;2267;48.816;9.230;2023-07-29T07:03:08;20.00;99.90
4509;DHT22;2267;48.816;9.230;2023-07-29T07:05:35;20.00;99.90
4509;DHT22;2267;48.816;9.230;2023-07-29T07:08:02;19.90;99.90
4509;DHT22;2267;48.816;9.230;2023-07-29T07:10:29;19.90;99.90
4509;DHT22;2267;48.816;9.230;2023-07-29T07:12:56;19.90;99.90
4509;DHT22;2267;48.816;9.230;2023-07-29T07:15:23;19.90;99.90
4509;DHT22;2267;48.816;9.230;2023-07-29T07:17:51;19.90;99.90
4509;DHT22;2267;48.816;9.230;2023-07-29T07:20:18;19.90;99.90
4509;DHT22;2267;48.816;9.230;2023-07-29T07:22:45;19.80;99.90
4509;DHT22;2267;48.816;9.230;2023-07-29T07:25:12;19.80;99.90
4509;DHT22;2267;48.816;9.230;2023-07-29T07:27:39;19.80;99.90
4509;DHT22;2267;48.816;9.230;2023-07-29T07:30:06;19.80;99.90
4509;DHT22;2267;48.816;9.230;2023-07-29T07:32:33;19.80;99.90
4509;DHT22;2267;48.816;9.230;2023-07-29T07:35:00;19.80;99.90
4509;DHT22;2267;48.816;9.230;2023-07-29T07:37:26;19.80;99.90
4509;DHT22;2267;48.816;9.230;2023-07-29T07:39:53;19.80;99.90
4509;DHT22;2267;48.816;9.230;2023-07-29T07:42:20;19.90;99.90
4509;DHT22;2267;48.816;9.230;2023-07-29T07:44:46;19.90;99.90
4509;DHT22;2267;48.816;9.230;2023-07-29T07:47:13;19.90;99.90
4509;DHT22;2267;48.816;9.230;2023-07-29T07:49:40;20.00;99.90
4509;DHT22;2267;48.816;9.230;2023-07-29T07:52:07;20.00;99.90
4509;DHT22;2267;48.816;9.230;2023-07-29T07:54:33;20.00;99.90
4509;DHT22;2267;48.816;9.230;2023-07-29T07:57:00;20.10;99.90
4509;DHT22;2267;48.816;9.230;2023-07-29T07:59:27;20.10;99.90
4509;DHT22;2267;48.816;9.230;2023-07-29T08:01:53;20.20;99.90
4509;DHT22;2267;48.816;9.230;2023-07-29T08:04:20;20.20;99.90
4509;DHT22;2267;48.816;9.230;2023-07-29T08:06:47;20.20;99.90
4509;DHT22;2267;48.816;9.230;2023-07-29T08:09:14;20.30;99.90
4509;DHT22;2267;48.816;9.230;2023-07-29T08:11:41;20.30;99.90
4509;DHT22;2267;48.816;9.230;2023-07-29T08:14:08;20.40;99.90
4509;DHT22;2267;48.816;9.230;2023-07-29T08:16:34;20.40;99.90
4509;DHT22;2267;48.816;9.230;2023-07-29T08:19:02;20.50;99.90
4509;DHT22;2267;48.816;9.230;2023-07-29T08:21:29;20.50;99.90
4509;DHT22;2267;48.816;9.230;2023-07-29T08:23:56;20.50;99.90
4509;DHT22;2267;48.816;9.230;2023-07-29T08:26:25;20.60;99.90
4509;DHT22;2267;48.816;9.230;2023-07-29T08:28:52;20.60;99.90
4509;DHT22;2267;48.816;9.230;2023-07-29T08:31:20;20.70;99.90
4509;DHT22;2267;48.816;9.230;2023-07-29T08:33:47;20.70;99.90
4509;DHT22;2267;48.816;9.230;2023-07-29T08:36:14;20.70;99.90
4509;DHT22;2267;48.816;9.230;2023-07-29T08:38:41;20.70;99.90
4509;DHT22;2267;48.816;9.230;2023-07-29T08:41:14;20.70;99.90
4509;DHT22;2267;48.816;9.230;2023-07-29T08:46:39;20.80;99.90
4509;DHT22;2267;48.816;9.230;2023-07-29T08:49:07;20.90;99.90
4509;DHT22;2267;48.816;9.230;2023-07-29T08:51:34;20.90;99.90
4509;DHT22;2267;48.816;9.230;2023-07-29T08:54:02;20.90;99.90
4509;DHT22;2267;48.816;9.230;2023-07-29T08:56:30;21.00;99.90
4509;DHT22;2267;48.816;9.230;2023-07-29T08:58:57;21.00;99.90
4509;DHT22;2267;48.816;9.230;2023-07-29T09:01:27;21.00;99.90
4509;DHT22;2267;48.816;9.230;2023-07-29T09:03:54;21.10;99.90
4509;DHT22;2267;48.816;9.230;2023-07-29T09:06:21;21.20;99.90
4509;DHT22;2267;48.816;9.230;2023-07-29T09:08:49;21.20;99.90
4509;DHT22;2267;48.816;9.230;2023-07-29T09:11:17;21.40;99.90
4509;DHT22;2267;48.816;9.230;2023-07-29T09:13:44;21.40;99.90
4509;DHT22;2267;48.816;9.230;2023-07-29T09:16:11;21.40;99.90
4509;DHT22;2267;48.816;9.230;2023-07-29T09:18:38;21.50;99.90
4509;DHT22;2267;48.816;9.230;2023-07-29T09:21:05;21.50;99.90
4509;DHT22;2267;48.816;9.230;2023-07-29T09:23:42;21.50;99.90
4509;DHT22;2267;48.816;9.230;2023-07-29T09:26:10;21.50;99.90
4509;DHT22;2267;48.816;9.230;2023-07-29T09:28:38;21.60;99.90
4509;DHT22;2267;48.816;9.230;2023-07-29T09:31:06;21.60;99.90
4509;DHT22;2267;48.816;9.230;2023-07-29T09:33:35;21.70;99.90
4509;DHT22;2267;48.816;9.230;2023-07-29T09:36:09;21.80;99.90
4509;DHT22;2267;48.816;9.230;2023-07-29T09:38:37;21.90;99.90
4509;DHT22;2267;48.816;9.230;2023-07-29T09:41:04;21.90;99.90
4509;DHT22;2267;48.816;9.230;2023-07-29T09:43:32;22.10;99.90
4509;DHT22;2267;48.816;9.230;2023-07-29T09:46:05;22.20;99.90
4509;DHT22;2267;48.816;9.230;2023-07-29T09:48:36;22.20;99.90
4509;DHT22;2267;48.816;9.230;2023-07-29T09:51:10;22.20;99.90
4509;DHT22;2267;48.816;9.230;2023-07-29T09:53:46;22.30;99.90
4509;DHT22;2267;48.816;9.230;2023-07-29T09:56:14;22.30;99.90
4509;DHT22;2267;48.816;9.230;2023-07-29T09:58:43;22.20;99.90
4509;DHT22;2267;48.816;9.230;2023-07-29T10:01:10;22.30;99.90
4509;DHT22;2267;48.816;9.230;2023-07-29T10:03:37;22.30;99.90
4509;DHT22;2267;48.816;9.230;2023-07-29T10:06:05;22.40;99.90
4509;DHT22;2267;48.816;9.230;2023-07-29T10:08:33;22.50;99.90
4509;DHT22;2267;48.816;9.230;2023-07-29T10:11:06;22.60;99.90
4509;DHT22;2267;48.816;9.230;2023-07-29T10:13:33;22.70;99.90
4509;DHT22;2267;48.816;9.230;2023-07-29T10:16:01;22.80;99.90
4509;DHT22;2267;48.816;9.230;2023-07-29T10:18:33;22.90;99.90
4509;DHT22;2267;48.816;9.230;2023-07-29T10:21:00;23.00;99.90
4509;DHT22;2267;48.816;9.230;2023-07-29T10:23:32;23.10;99.90
4509;DHT22;2267;48.816;9.230;2023-07-29T10:26:04;23.20;99.90
4509;DHT22;2267;48.816;9.230;2023-07-29T10:28:32;23.20;99.90
4509;DHT22;2267;48.816;9.230;2023-07-29T10:30:59;23.10;99.90
4509;DHT22;2267;48.816;9.230;2023-07-29T10:33:26;23.10;99.90
4509;DHT22;2267;48.816;9.230;2023-07-29T10:35:54;23.00;99.90
4509;DHT22;2267;48.816;9.230;2023-07-29T10:38:22;22.90;99.90
4509;DHT22;2267;48.816;9.230;2023-07-29T10:40:55;22.80;99.90
4509;DHT22;2267;48.816;9.230;2023-07-29T10:45:58;22.70;99.90
4509;DHT22;2267;48.816;9.230;2023-07-29T10:48:44;22.70;99.90
4509;DHT22;2267;48.816;9.230;2023-07-29T10:54:01;22.70;99.90
4509;DHT22;2267;48.816;9.230;2023-07-29T10:56:33;22.70;99.90
4509;DHT22;2267;48.816;9.230;2023-07-29T11:01:40;22.70;99.90
4509;DHT22;2267;48.816;9.230;2023-07-29T11:04:28;22.80;99.90
4509;DHT22;2267;48.816;9.230;2023-07-29T11:12:42;23.10;99.90
4509;DHT22;2267;48.816;9.230;2023-07-29T11:17:39;23.20;99.90
4509;DHT22;2267;48.816;9.230;2023-07-29T11:20:07;23.30;99.90
4509;DHT22;2267;48.816;9.230;2023-07-29T11:22:35;23.40;99.90
4509;DHT22;2267;48.816;9.230;2023-07-29T11:25:03;23.40;99.90
4509;DHT22;2267;48.816;9.230;2023-07-29T11:27:29;23.60;99.90
4509;DHT22;2267;48.816;9.230;2023-07-29T11:30:01;23.70;99.90
4509;DHT22;2267;48.816;9.230;2023-07-29T11:32:28;23.70;99.90
4509;DHT22;2267;48.816;9.230;2023-07-29T11:34:55;23.70;99.90
4509;DHT22;2267;48.816;9.230;2023-07-29T11:37:22;23.70;99.90
4509;DHT22;2267;48.816;9.230;2023-07-29T11:39:49;23.70;99.90
4509;DHT22;2267;48.816;9.230;2023-07-29T11:42:17;23.70;99.90
4509;DHT22;2267;48.816;9.230;2023-07-29T11:44:45;23.70;99.90
4509;DHT22;2267;48.816;9.230;2023-07-29T11:47:12;23.70;99.90
4509;DHT22;2267;48.816;9.230;2023-07-29T11:49:40;23.70;99.90
4509;DHT22;2267;48.816;9.230;2023-07-29T11:52:08;23.80;99.90
4509;DHT22;2267;48.816;9.230;2023-07-29T11:54:36;23.80;99.90
4509;DHT22;2267;48.816;9.230;2023-07-29T11:57:10;23.90;99.90
4509;DHT22;2267;48.816;9.230;2023-07-29T11:59:37;24.00;99.90
4509;DHT22;2267;48.816;9.230;2023-07-29T12:02:08;24.00;99.90
4509;DHT22;2267;48.816;9.230;2023-07-29T12:04:37;24.20;99.90
4509;DHT22;2267;48.816;9.230;2023-07-29T12:07:05;24.30;99.90
4509;DHT22;2267;48.816;9.230;2023-07-29T12:09:36;24.50;99.90
4509;DHT22;2267;48.816;9.230;2023-07-29T12:12:04;24.60;99.90
4509;DHT22;2267;48.816;9.230;2023-07-29T12:14:32;24.80;99.90
4509;DHT22;2267;48.816;9.230;2023-07-29T12:17:03;24.90;99.90
4509;DHT22;2267;48.816;9.230;2023-07-29T12:19:37;25.00;99.90
4509;DHT22;2267;48.816;9.230;2023-07-29T12:22:08;25.10;99.90
4509;DHT22;2267;48.816;9.230;2023-07-29T12:24:39;25.10;99.90
4509;DHT22;2267;48.816;9.230;2023-07-29T12:27:14;25.20;99.90
4509;DHT22;2267;48.816;9.230;2023-07-29T12:29:43;25.40;99.90
4509;DHT22;2267;48.816;9.230;2023-07-29T12:32:10;25.50;99.90
4509;DHT22;2267;48.816;9.230;2023-07-29T12:34:39;25.60;99.90
4509;DHT22;2267;48.816;9.230;2023-07-29T12:37:07;25.70;99.90
4509;DHT22;2267;48.816;9.230;2023-07-29T12:39:35;25.70;99.90
4509;DHT22;2267;48.816;9.230;2023-07-29T12:42:03;25.80;99.90
4509;DHT22;2267;48.816;9.230;2023-07-29T12:44:32;26.00;99.90
4509;DHT22;2267;48.816;9.230;2023-07-29T12:47:01;26.10;99.90
4509;DHT22;2267;48.816;9.230;2023-07-29T12:49:29;26.20;99.90
4509;DHT22;2267;48.816;9.230;2023-07-29T12:51:57;26.40;99.90
4509;DHT22;2267;48.816;9.230;2023-07-29T12:54:24;26.50;98.10
4509;DHT22;2267;48.816;9.230;2023-07-29T12:56:51;26.70;97.60
4509;DHT22;2267;48.816;9.230;2023-07-29T12:59:18;27.00;96.80
4509;DHT22;2267;48.816;9.230;2023-07-29T13:01:45;27.10;96.40
4509;DHT22;2267;48.816;9.230;2023-07-29T13:04:12;27.10;95.10
4509;DHT22;2267;48.816;9.230;2023-07-29T13:06:39;27.20;95.20
4509;DHT22;2267;48.816;9.230;2023-07-29T13:09:06;27.20;95.20
4509;DHT22;2267;48.816;9.230;2023-07-29T13:11:34;27.30;94.70
4509;DHT22;2267;48.816;9.230;2023-07-29T13:14:01;27.30;94.90
4509;DHT22;2267;48.816;9.230;2023-07-29T13:16:31;27.40;94.50
4509;DHT22;2267;48.816;9.230;2023-07-29T13:18:58;27.50;95.00
4509;DHT22;2267;48.816;9.230;2023-07-29T13:21:25;27.60;95.30
4509;DHT22;2267;48.816;9.230;2023-07-29T13:23:52;27.70;95.30
4509;DHT22;2267;48.816;9.230;2023-07-29T13:26:19;27.70;94.70
4509;DHT22;2267;48.816;9.230;2023-07-29T13:28:45;27.70;94.70
4509;DHT22;2267;48.816;9.230;2023-07-29T13:31:12;27.60;94.30
4509;DHT22;2267;48.816;9.230;2023-07-29T13:33:39;27.50;93.00
4509;DHT22;2267;48.816;9.230;2023-07-29T13:36:06;27.40;93.10
4509;DHT22;2267;48.816;9.230;2023-07-29T13:38:35;27.30;93.50
4509;DHT22;2267;48.816;9.230;2023-07-29T13:41:02;27.20;92.80
4509;DHT22;2267;48.816;9.230;2023-07-29T13:43:29;26.90;93.20
4509;DHT22;2267;48.816;9.230;2023-07-29T13:45:56;26.80;94.00
4509;DHT22;2267;48.816;9.230;2023-07-29T13:48:23;26.70;94.50
4509;DHT22;2267;48.816;9.230;2023-07-29T13:50:50;26.70;94.40
4509;DHT22;2267;48.816;9.230;2023-07-29T13:53:18;26.60;94.50
4509;DHT22;2267;48.816;9.230;2023-07-29T13:55:45;26.50;94.90
4509;DHT22;2267;48.816;9.230;2023-07-29T13:58:12;26.50;94.70
4509;DHT22;2267;48.816;9.230;2023-07-29T14:00:39;26.40;94.60
4509;DHT22;2267;48.816;9.230;2023-07-29T14:03:06;26.30;94.20
4509;DHT22;2267;48.816;9.230;2023-07-29T14:05:33;26.30;93.90
4509;DHT22;2267;48.816;9.230;2023-07-29T14:07:59;26.20;94.60
4509;DHT22;2267;48.816;9.230;2023-07-29T14:10:26;26.20;94.80
4509;DHT22;2267;48.816;9.230;2023-07-29T14:12:53;26.10;94.90
4509;DHT22;2267;48.816;9.230;2023-07-29T14:15:21;26.10;95.10
4509;DHT22;2267;48.816;9.230;2023-07-29T14:17:48;26.20;95.10
4509;DHT22;2267;48.816;9.230;2023-07-29T14:20:15;26.30;94.80
4509;DHT22;2267;48.816;9.230;2023-07-29T14:22:42;26.40;95.00
4509;DHT22;2267;48.816;9.230;2023-07-29T14:25:09;26.40;95.00
4509;DHT22;2267;48.816;9.230;2023-07-29T14:27:36;26.50;94.80
4509;DHT22;2267;48.816;9.230;2023-07-29T14:30:04;26.60;95.10
4509;DHT22;2267;48.816;9.230;2023-07-29T14:35:07;26.60;94.70
4509;DHT22;2267;48.816;9.230;2023-07-29T14:37:34;26.60;94.70
4509;DHT22;2267;48.816;9.230;2023-07-29T14:40:01;26.50;94.80
4509;DHT22;2267;48.816;9.230;2023-07-29T14:42:29;26.50;95.10
4509;DHT22;2267;48.816;9.230;2023-07-29T14:44:57;26.40;95.40
4509;DHT22;2267;48.816;9.230;2023-07-29T14:47:24;26.30;95.10
4509;DHT22;2267;48.816;9.230;2023-07-29T14:49:51;26.30;95.50
4509;DHT22;2267;48.816;9.230;2023-07-29T14:52:18;26.20;95.60
4509;DHT22;2267;48.816;9.230;2023-07-29T14:54:45;26.20;95.30
4509;DHT22;2267;48.816;9.230;2023-07-29T14:57:12;26.10;95.40
4509;DHT22;2267;48.816;9.230;2023-07-29T14:59:38;26.00;95.70
4509;DHT22;2267;48.816;9.230;2023-07-29T15:02:06;26.00;95.60
4509;DHT22;2267;48.816;9.230;2023-07-29T15:04:33;25.90;95.70
4509;DHT22;2267;48.816;9.230;2023-07-29T15:07:00;25.90;96.10
4509;DHT22;2267;48.816;9.230;2023-07-29T15:09:26;25.80;95.70
4509;DHT22;2267;48.816;9.230;2023-07-29T15:11:53;25.80;95.60
4509;DHT22;2267;48.816;9.230;2023-07-29T15:14:24;25.80;95.80
4509;DHT22;2267;48.816;9.230;2023-07-29T15:16:51;25.80;95.90
4509;DHT22;2267;48.816;9.230;2023-07-29T15:19:18;25.80;96.10
4509;DHT22;2267;48.816;9.230;2023-07-29T15:21:45;25.80;96.40
4509;DHT22;2267;48.816;9.230;2023-07-29T15:24:12;25.90;96.50
4509;DHT22;2267;48.816;9.230;2023-07-29T15:26:39;25.90;96.60
4509;DHT22;2267;48.816;9.230;2023-07-29T15:29:07;25.90;96.70
4509;DHT22;2267;48.816;9.230;2023-07-29T15:31:34;25.90;96.30
4509;DHT22;2267;48.816;9.230;2023-07-29T15:34:01;25.90;96.30
4509;DHT22;2267;48.816;9.230;2023-07-29T15:36:29;25.90;96.20
4509;DHT22;2267;48.816;9.230;2023-07-29T15:38:56;25.90;96.40
4509;DHT22;2267;48.816;9.230;2023-07-29T15:41:22;26.00;97.00
4509;DHT22;2267;48.816;9.230;2023-07-29T15:43:50;26.10;97.30
4509;DHT22;2267;48.816;9.230;2023-07-29T15:46:16;26.20;96.60
4509;DHT22;2267;48.816;9.230;2023-07-29T15:48:44;26.30;96.40
4509;DHT22;2267;48.816;9.230;2023-07-29T15:51:11;26.30;96.10
4509;DHT22;2267;48.816;9.230;2023-07-29T15:53:38;26.30;96.50
4509;DHT22;2267;48.816;9.230;2023-07-29T15:56:04;26.30;96.00
4509;DHT22;2267;48.816;9.230;2023-07-29T15:58:31;26.30;96.20
4509;DHT22;2267;48.816;9.230;2023-07-29T16:00:58;26.30;96.40
4509;DHT22;2267;48.816;9.230;2023-07-29T16:03:25;26.30;96.20
4509;DHT22;2267;48.816;9.230;2023-07-29T16:05:52;26.30;96.30
4509;DHT22;2267;48.816;9.230;2023-07-29T16:08:19;26.20;96.50
4509;DHT22;2267;48.816;9.230;2023-07-29T16:10:45;26.10;96.40
4509;DHT22;2267;48.816;9.230;2023-07-29T16:13:12;26.10;96.10
4509;DHT22;2267;48.816;9.230;2023-07-29T16:15:44;26.00;96.10
4509;DHT22;2267;48.816;9.230;2023-07-29T16:18:11;26.00;95.90
4509;DHT22;2267;48.816;9.230;2023-07-29T16:20:38;26.00;96.10
4509;DHT22;2267;48.816;9.230;2023-07-29T16:23:04;26.00;96.10
4509;DHT22;2267;48.816;9.230;2023-07-29T16:25:35;26.00;96.40
4509;DHT22;2267;48.816;9.230;2023-07-29T16:28:02;26.00;96.40
4509;DHT22;2267;48.816;9.230;2023-07-29T16:30:29;26.00;96.20